Rapid City/Ellsworth AFB, South Dakota
Current Conditions -  °F | °C
As of 9:58 AM on Saturday 25 Oct 2014 (Local Time) from KRCA Reporting Station
Clear Clear  
Wind Chill: 55°   Ceiling: Unl
Heat Index: 55°   Visibility: 9mi
Dew Point: 35°   Wind: 12mph
Humidity: 46%   Direction: 170°S
Pressure: 30.15"   Gusts: NA
Location:  44.15°N, 103.1°W
Report Text: KRCA 251558Z AUTO 17010KT 9SM CLR 13/02 A3015 RMK AO2 SLP212 T01280015 $
Loading
Personal Weather Stations






























Interactive Weather Map
Tropical Storm Tracking
New forecast layout! Learn more

10-Day Weather Forecast

Advertisements
Track Severe Weather on mobile